In Rescue
 
Open Full Screen Window  High Contrast Mode
Wind Gusting 00 knots
08
November 19, 2019 11:59 AM CST
Weather Information
Wind Direction
  340 °
Wind Speed
  08 kt (9 mph)
Wind Gust
  00 kt (0 mph)
Altimeter
29.85 in
Visibility
10 SM
Temperature
05° C
41° F
Dewpoint
02° C
36° F
Humidity
81%
1hr Rain Fall
00.00 in.
24hr Rain Fall
00.00 in.
Sky Condition
Overcast @ 1,500 ft
MVFR

METAR KBBB 191759Z AUTO 34008KT 10SM OVC015 05/02 A2985 RMK AO2

FAA Disclaimer: The data displayed is for advisory purposes only and is not to be used for flight planning or operations.